Latest Weather Observations for Murrurundi Gap

IDN60801

Issued at 3:23 pm EST Wednesday 22 September 2021 (issued every 10 minutes, with the page automatically refreshed every 10 minutes)

About weather observations | Map of weather stations | Latest weather observations for NSW | Other Formats
Station Details ID: 061392 Name: MURRURUNDI GAP AWS Lat: -31.74 Lon: 150.79 Height: 729.4 m
Data from the previous 72 hours. | See also: Recent months at Murrurundi Gap
Date/Time
EST
Temp
°C
App
Temp
°C
Dew
Point
°C
Rel
Hum
%
Delta-T
°C
Wind Press
QNH
hPa
Press
MSL
hPa
Rain since
9am
mm
Dir  Spd
km/h
Gust
km/h
Spd
kts
Gust
kts
22/03:00pm 14.4 10.4 2.6 45 5.4 SSE 13 22 7 12 1022.2 1020.9 0.0
22/02:30pm 13.8 9.5 1.1 42 5.7 ESE 13 24 7 13 1022.2 1020.9 0.0
22/02:00pm 14.1 10.8 2.4 45 5.4 ESE 9 13 5 7 1022.3 1021.0 0.0
22/01:30pm 14.2 10.6 2.8 46 5.3 SSE 11 19 6 10 1022.4 1021.1 0.0
22/01:00pm 14.2 11.2 4.2 51 4.8 ENE 9 20 5 11 1022.6 1021.4 0.0
22/12:30pm 12.8 8.6 1.5 46 5.0 S 13 20 7 11 1022.8 1021.6 0.0
22/12:00pm 13.3 9.0 3.1 50 4.7 SE 15 22 8 12 1023.1 1021.8 0.0
22/11:30am 12.3 7.8 2.2 50 4.6 SSE 15 26 8 14 1023.5 1022.2 0.0
22/11:00am 12.5 8.4 4.2 57 3.9 SSE 15 24 8 13 1023.8 1022.6 0.0
22/10:30am 11.3 7.4 3.3 58 3.7 SE 13 26 7 14 1023.9 1022.7 0.0
22/10:00am 10.6 5.9 3.4 61 3.3 ESE 17 24 9 13 1024.1 1022.9 0.0
22/09:30am 9.6 4.4 3.4 65 2.8 E 20 26 11 14 1024.1 1022.9 0.0
22/09:00am 9.4 4.9 4.2 70 2.4 E 17 22 9 12 1023.9 1022.7 0.0
22/08:30am 8.5 3.9 3.8 72 2.1 E 17 20 9 11 1023.9 1022.7 0.0
22/08:00am 7.8 4.0 3.7 75 1.8 E 13 17 7 9 1023.8 1022.6 0.0
22/07:30am 6.4 2.4 2.7 77 1.6 ESE 13 15 7 8 1023.6 1022.3 0.0
22/07:00am 5.9 2.6 2.7 80 1.4 ESE 9 15 5 8 1023.2 1021.9 0.0
22/06:30am 4.2 0.9 2.4 88 0.8 ESE 9 13 5 7 1022.7 1021.5 0.0
22/06:00am 2.7 -1.1 1.7 93 0.4 SE 11 13 6 7 1022.4 1021.1 0.0
22/05:30am 2.5 -1.4 1.0 90 0.6 ESE 11 17 6 9 1022.1 1020.8 0.0
22/05:00am 4.7 -0.6 1.7 81 1.2 SSE 19 24 10 13 1021.5 1020.3 0.0
22/04:30am 4.6 -1.7 1.8 82 1.2 SSE 24 30 13 16 1021.2 1019.9 0.0
22/04:00am 4.4 -2.6 1.8 83 1.1 SE 28 32 15 17 1021.0 1019.7 0.0
22/03:30am 3.1 -4.1 0.8 85 0.9 SE 28 35 15 19 1020.9 1019.6 0.0
22/03:00am 4.8 -1.9 1.7 80 1.3 SE 26 32 14 17 1021.1 1019.8 0.0
22/02:30am 4.7 -1.2 1.7 81 1.2 SE 22 30 12 16 1021.5 1020.3 0.0
22/02:00am 4.5 -1.4 1.5 81 1.2 SE 22 28 12 15 1022.1 1020.8 0.0
22/01:30am 5.1 -0.2 1.6 78 1.5 SE 19 24 10 13 1022.3 1021.0 0.0
22/01:00am 5.3 1.1 1.8 78 1.5 SE 13 19 7 10 1022.7 1021.5 0.0
22/12:30am 5.6 1.8 1.9 77 1.6 ESE 11 17 6 9 1022.9 1021.7 0.0
22/12:00am 5.5 1.3 1.8 77 1.5 ESE 13 20 7 11 1023.2 1021.9 0.0
 
Date/Time
EST
Temp
°C
App
Temp
°C
Dew
Point
°C
Rel
Hum
%
Delta-T
°C
Wind Press
QNH
hPa
Press
MSL
hPa
Rain since
9am
mm
Dir  Spd
km/h
Gust
km/h
Spd
kts
Gust
kts
21/11:30pm 5.1 0.8 1.2 76 1.6 ESE 13 17 7 9 1023.3 1022.0 0.0
21/11:00pm 5.0 1.0 0.8 74 1.7 SE 11 15 6 8 1023.4 1022.1 0.0
21/10:30pm 5.6 1.9 -0.2 66 2.3 SSE 9 15 5 8 1023.2 1021.9 0.0
21/10:00pm 5.9 1.8 -0.4 64 2.5 S 11 13 6 7 1022.8 1021.6 0.0
21/09:30pm 5.5 0.9 -0.8 64 2.5 W 13 15 7 8 1022.5 1021.3 0.0
21/09:00pm 6.1 3.7 -0.6 62 2.7 ESE 2 6 1 3 1022.4 1021.1 0.0
21/08:30pm 5.8 1.3 -0.3 65 2.4 SE 13 17 7 9 1022.3 1021.0 0.0
21/08:00pm 5.4 0.9 -0.6 65 2.4 SE 13 17 7 9 1021.9 1020.6 0.0
21/07:30pm 6.8 3.3 -1.6 55 3.3 SE 7 11 4 6 1021.2 1019.9 0.0
21/07:00pm 6.9 3.5 -1.7 54 3.4 WSW 6 7 3 4 1020.8 1019.5 0.0
21/06:30pm 7.0 3.5 -1.2 56 3.3 SW 7 9 4 5 1020.3 1019.0 0.0
21/06:00pm 6.8 3.9 -1.1 57 3.1 S 4 9 2 5 1019.9 1018.6 0.0
21/05:30pm 7.0 2.9 0.0 61 2.9 SE 11 15 6 8 1019.5 1018.2 0.0
21/05:00pm 7.8 2.9 -0.7 55 3.4 SE 15 24 8 13 1019.3 1018.0 0.0
21/04:30pm 8.0 3.0 -1.0 53 3.6 SSW 15 24 8 13 1018.7 1017.3 0.0
21/04:00pm 7.5 3.4 0.0 59 3.1 E 11 15 6 8 1017.9 1016.6 0.0
21/03:30pm 6.8 2.0 0.5 64 2.6 SE 15 28 8 15 1017.8 1016.5 0.0
21/03:00pm 9.6 4.4 0.0 51 4.0 S 17 26 9 14 1017.3 1015.9 0.0
21/02:30pm 7.3 2.4 -0.4 58 3.1 E 15 19 8 10 1016.9 1015.6 0.0
21/02:00pm 8.2 2.4 -4.6 40 4.7 S 17 30 9 16 1016.7 1015.4 0.0
21/01:30pm 9.3 4.3 -1.4 47 4.3 S 15 22 8 12 1016.8 1015.5 0.0
21/01:00pm 8.4 3.0 -1.1 51 3.8 SW 17 26 9 14 1016.7 1015.4 0.0
21/12:30pm 7.7 1.8 -2.0 50 3.8 WSW 19 24 10 13 1016.5 1015.2 0.0
21/12:00pm 7.0 0.2 -1.9 53 3.5 WSW 24 39 13 21 1016.5 1015.2 0.0
21/11:30am 8.0 1.6 -1.5 51 3.8 WSW 22 33 12 18 1016.3 1014.9 0.0
21/11:00am 6.9 0.8 -2.5 51 3.6 WSW 20 33 11 18 1016.6 1015.3 0.0
21/10:30am 8.1 2.7 -1.1 52 3.7 W 17 28 9 15 1016.3 1014.9 0.0
21/10:00am 7.5 1.0 0.0 59 3.1 W 24 32 13 17 1016.2 1014.8 0.0
21/09:30am 7.2 1.4 -0.3 59 3.0 WNW 20 35 11 19 1016.2 1014.8 0.0
21/09:00am 6.8 0.3 0.0 62 2.8 W 24 39 13 21 1016.0 1014.6 0.0
21/08:30am 6.4 0.1 1.3 70 2.1 W 24 35 13 19 1016.0 1014.6 0.0
21/08:00am 4.9 -0.2 0.7 74 1.7 W 17 30 9 16 1015.8 1014.4 0.0
21/07:30am 4.8 -1.6 0.8 75 1.6 WSW 24 33 13 18 1015.6 1014.3 0.0
21/07:00am 5.1 0.2 2.1 81 1.3 WNW 17 22 9 12 1015.1 1013.7 0.0
21/06:30am 4.7 -0.2 2.1 83 1.1 WNW 17 24 9 13 1014.8 1013.4 0.0
21/06:00am 4.2 -0.4 1.7 84 1.0 WNW 15 19 8 10 1014.3 1012.9 0.0
21/05:30am 4.7 -0.2 2.1 83 1.1 NW 17 22 9 12 1013.9 1012.5 0.0
21/05:00am 4.2 -0.4 1.4 82 1.1 NW 15 19 8 10 1013.8 1012.4 0.0
21/04:30am 5.0 0.7 0.8 74 1.7 WNW 13 15 7 8 1013.8 1012.4 0.0
21/04:00am 5.8 2.2 0.8 70 2.1 NW 9 11 5 6 1014.0 1012.6 0.0
21/03:30am 6.4 2.4 0.5 66 2.4 SSW 11 17 6 9 1014.0 1012.6 0.0
21/03:00am 7.0 2.7 0.7 64 2.6 WSW 13 20 7 11 1014.3 1012.9 0.0
21/02:30am 7.5 4.3 0.7 62 2.8 SSW 7 15 4 8 1014.4 1013.0 0.0
21/02:00am 7.3 3.9 1.8 68 2.4 SSE 9 15 5 8 1014.5 1013.1 0.0
21/01:30am 8.1 2.7 1.5 63 2.8 ESE 19 26 10 14 1014.4 1013.0 0.0
21/01:00am 8.5 3.3 2.5 66 2.6 SE 19 24 10 13 1014.5 1013.1 0.0
21/12:30am 8.5 3.8 2.9 68 2.5 ESE 17 20 9 11 1014.5 1013.1 0.0
21/12:00am 9.0 4.3 3.4 68 2.5 SE 17 26 9 14 1014.4 1013.0 0.0
 
Date/Time
EST
Temp
°C
App
Temp
°C
Dew
Point
°C
Rel
Hum
%
Delta-T
°C
Wind Press
QNH
hPa
Press
MSL
hPa
Rain since
9am
mm
Dir  Spd
km/h
Gust
km/h
Spd
kts
Gust
kts
20/11:30pm 9.8 4.6 3.8 66 2.7 ESE 20 26 11 14 1013.9 1012.5 0.0
20/11:00pm 10.7 7.2 3.7 62 3.2 NNE 11 19 6 10 1013.9 1012.5 0.0
20/10:30pm 11.1 8.4 3.6 60 3.5 NW 7 13 4 7 1013.8 1012.4 0.0
20/10:00pm 12.7 10.1 1.1 45 5.1 WSW 4 11 2 6 1013.6 1012.2 0.0
20/09:30pm 13.2 8.4 -0.1 40 5.8 NW 15 19 8 10 1013.0 1011.6 0.0
20/09:00pm 13.3 8.1 0.0 40 5.8 NW 17 19 9 10 1013.1 1011.7 0.0
20/08:30pm 13.2 7.7 0.3 41 5.6 NW 19 20 10 11 1013.4 1012.0 0.0
20/08:00pm 13.6 8.1 0.6 41 5.7 NW 19 22 10 12 1013.4 1012.0 0.0
20/07:30pm 13.5 7.9 0.9 42 5.6 NW 20 24 11 13 1013.6 1012.2 0.0
20/07:00pm 14.4 8.7 0.3 38 6.2 WNW 20 26 11 14 1013.3 1011.9 0.0
20/06:30pm 15.9 8.1 -0.8 32 7.3 NW 30 35 16 19 1013.3 1011.9 0.0
20/06:00pm 16.9 8.1 -1.2 29 7.9 NW 35 46 19 25 1013.1 1011.7 0.0
20/05:30pm 17.6 8.0 -1.6 27 8.4 NW 39 46 21 25 1012.7 1011.3 0.0
20/05:00pm 18.5 9.4 -0.8 27 8.6 NW 37 48 20 26 1012.9 1011.4 0.0
20/04:30pm 18.7 9.2 -0.7 27 8.7 NW 39 50 21 27 1012.7 1011.3 0.0
20/04:00pm 19.1 8.8 -1.4 25 9.1 NW 43 56 23 30 1012.6 1011.2 0.0
20/03:40pm 19.7 9.4 -1.4 24 9.4 NW 43 61 23 33 1012.5 1011.1 0.0
20/03:30pm 19.5 9.0 -2.2 23 9.5 NW 43 56 23 30 1012.6 1011.2 0.0
20/03:00pm 19.7 9.2 -1.4 24 9.4 NW 44 63 24 34 1013.1 1011.7 0.0
20/02:30pm 19.6 8.4 -0.9 25 9.2 NW 48 67 26 36 1013.0 1011.6 0.0
20/02:04pm 19.8 9.9 -0.8 25 9.3 WNW 41 59 22 32 1013.7 1012.3 0.0
20/02:00pm 20.4 10.4 0.8 27 9.2 NW 43 56 23 30 1013.9 1012.5 0.0
20/01:30pm 19.1 9.4 2.9 34 7.8 NW 43 59 23 32 1014.5 1013.1 0.0
20/01:28pm 19.1 9.8 2.9 34 7.8 NW 41 59 22 32 1014.4 1013.0 0.0
20/01:00pm 18.4 9.7 4.2 39 7.0 NW 39 50 21 27 1015.3 1014.0 0.0
20/12:30pm 17.7 7.4 2.8 37 7.1 NW 46 57 25 31 1016.0 1014.6 0.0
20/12:12pm 17.5 7.6 1.9 35 7.3 NW 43 63 23 34 1015.9 1014.5 0.0
20/12:00pm 17.9 9.2 4.1 40 6.8 NW 39 52 21 28 1016.6 1015.3 0.0
20/11:30am 17.0 8.8 5.0 45 6.0 NW 37 50 20 27 1017.1 1015.8 0.0
20/11:00am 16.6 7.6 4.3 44 6.0 NW 41 52 22 28 1017.6 1016.2 0.0
20/10:30am 15.8 6.9 5.1 49 5.3 NW 41 57 22 31 1017.9 1016.6 0.0
20/10:22am 15.9 7.3 4.6 47 5.5 NW 39 57 21 31 1017.9 1016.6 0.0
20/10:00am 15.8 8.3 6.3 53 4.8 NW 35 46 19 25 1018.4 1017.1 0.0
20/09:30am 15.1 7.5 5.6 53 4.7 NW 35 43 19 23 1018.7 1017.3 0.0
20/09:00am 14.0 6.8 5.1 55 4.3 NW 32 41 17 22 1018.8 1017.4 0.0
20/08:30am 13.9 8.7 5.3 56 4.2 NW 22 28 12 15 1019.3 1018.0 0.0
20/08:00am 13.0 8.1 4.9 58 3.9 NW 20 26 11 14 1019.3 1018.0 0.0
20/07:30am 12.0 6.9 4.2 59 3.7 WNW 20 22 11 12 1019.3 1018.0 0.0
20/07:00am 10.6 5.6 3.4 61 3.3 WNW 19 22 10 12 1019.4 1018.1 0.0
20/06:30am 10.3 5.1 2.7 59 3.4 WNW 19 24 10 13 1019.2 1017.9 0.0
20/06:00am 9.9 4.4 2.0 58 3.5 NW 20 24 11 13 1019.0 1017.7 0.0
20/05:30am 9.5 4.0 1.7 58 3.4 WNW 20 24 11 13 1019.1 1017.8 0.0
20/05:00am 8.7 3.2 2.1 63 2.9 WNW 20 22 11 12 1019.1 1017.8 0.0
20/04:30am 9.7 4.4 1.6 57 3.5 WNW 19 20 10 11 1019.3 1018.0 0.0
20/04:00am 9.5 4.0 2.1 60 3.2 NW 20 24 11 13 1019.3 1018.0 0.0
20/03:30am 9.1 3.9 2.4 63 3.0 WNW 19 20 10 11 1019.5 1018.2 0.0
20/03:00am 9.3 4.1 2.6 63 3.0 WNW 19 20 10 11 1019.6 1018.3 0.0
20/02:30am 10.3 5.1 2.7 59 3.4 WNW 19 22 10 12 1020.0 1018.8 0.0
20/02:00am 10.5 5.7 2.6 58 3.5 WNW 17 20 9 11 1020.2 1018.9 0.0
20/01:30am 10.8 5.4 2.4 56 3.8 NW 20 26 11 14 1020.5 1019.2 0.0
20/01:00am 10.8 5.6 2.6 57 3.7 NW 19 20 10 11 1020.8 1019.5 0.0
20/12:30am 10.6 5.9 3.2 60 3.4 WNW 17 20 9 11 1021.2 1019.9 0.0
20/12:00am 10.7 6.0 3.3 60 3.4 WNW 17 20 9 11 1021.4 1020.2 0.0
 
Date/Time
EST
Temp
°C
App
Temp
°C
Dew
Point
°C
Rel
Hum
%
Delta-T
°C
Wind Press
QNH
hPa
Press
MSL
hPa
Rain since
9am
mm
Dir  Spd
km/h
Gust
km/h
Spd
kts
Gust
kts
19/11:30pm 11.0 6.0 3.8 61 3.3 WNW 19 22 10 12 1021.5 1020.3 0.0
19/11:00pm 10.8 5.8 3.8 62 3.2 NW 19 22 10 12 1021.7 1020.4 0.0
19/10:30pm 11.4 7.2 3.7 59 3.6 WNW 15 19 8 10 1021.9 1020.6 0.0
19/10:00pm 11.8 6.7 3.1 55 4.0 WNW 19 20 10 11 1021.8 1020.5 0.0
19/09:30pm 12.4 7.3 2.8 52 4.4 NW 19 24 10 13 1021.8 1020.5 0.0
19/09:00pm 12.6 7.4 2.2 49 4.7 NW 19 20 10 11 1022.0 1020.7 0.0
19/08:30pm 13.1 9.0 2.4 48 4.9 NW 13 15 7 8 1022.2 1020.9 0.0
19/08:00pm 12.9 8.9 3.0 51 4.6 NW 13 15 7 8 1022.1 1020.8 0.0
19/07:30pm 13.2 8.9 3.0 50 4.7 WNW 15 15 8 8 1021.9 1020.6 0.0
19/07:00pm 13.3 8.9 4.5 55 4.2 NW 17 19 9 10 1021.5 1020.3 0.0
19/06:30pm 13.6 9.2 4.7 55 4.3 WNW 17 19 9 10 1021.3 1020.1 0.0
19/06:00pm 14.5 9.5 4.8 52 4.7 NW 20 26 11 14 1021.2 1019.9 0.0
19/05:30pm 16.1 10.3 4.2 45 5.8 NNW 24 30 13 16 1021.1 1019.8 0.0
19/05:00pm 16.6 10.4 4.3 44 6.0 NW 26 30 14 16 1021.0 1019.7 0.0
19/04:30pm 17.0 11.6 4.3 43 6.2 NNW 22 30 12 16 1020.8 1019.5 0.0
19/04:00pm 17.3 11.2 4.6 43 6.3 NW 26 33 14 18 1020.8 1019.5 0.0
19/03:30pm 17.2 10.5 3.5 40 6.6 NW 28 35 15 19 1020.8 1019.5 0.0

Other formats

Comma delimited format used in spreadsheet applications
http://www.bom.gov.au/fwo/IDN60801/IDN60801.95747.axf

JavaScript Object Notation format (JSON) in row-major order
http://www.bom.gov.au/fwo/IDN60801/IDN60801.95747.json

Data quality

Most of these data are generated automatically and are frequently updated. Quality checks on data are not normally performed. It is possible for incorrect values to appear. Refer to information at About Latest Weather Observations and please check the disclaimer before using these data.